Malmstrom A F B, Montana
Current Conditions -  °F | °C
As of 7:56 AM on Wednesday 22 Oct 2014 (Local Time) from KGFA Reporting Station
Clear Clear  
Wind Chill: 33°   Ceiling: Unl
Heat Index: 41°   Visibility: 10mi
Dew Point: 34°   Wind: 13mph
Humidity: 76%   Direction: 220°SW
Pressure: 29.96"   Gusts: NA
Location:  47.5102°N, 111.1959°W
Report Text: KGFA 221356Z AUTO 22011KT 10SM CLR 05/01 A2996 RMK AO2 SLP166 T00480009
Loading
Personal Weather Stations






























Interactive Weather Map
Tropical Storm Tracking
New forecast layout! Learn more

10-Day Weather Forecast

Advertisements
Track Severe Weather on mobile